createdAt,value
2022-10-02T00:03:24.589Z,1.1
2022-10-02T00:13:24.361Z,1.1
2022-10-02T00:23:24.372Z,1.1
2022-10-02T00:33:24.442Z,1.2
2022-10-02T00:53:24.462Z,1.3
2022-10-02T01:03:24.440Z,1.3
2022-10-02T01:33:24.530Z,1.3
2022-10-02T01:53:24.588Z,1.3
2022-10-02T02:03:24.557Z,1.2
2022-10-02T02:13:24.589Z,1.2
2022-10-02T02:23:24.695Z,1.2
2022-10-02T02:33:24.641Z,1.2
2022-10-02T02:43:24.639Z,1.1
2022-10-02T03:03:24.694Z,1
2022-10-02T03:13:24.702Z,1.1
2022-10-02T03:23:24.735Z,1.1
2022-10-02T04:03:24.856Z,0.6
2022-10-02T04:13:24.810Z,0.6
2022-10-02T04:23:24.850Z,0.6
2022-10-02T04:33:24.848Z,0.5
2022-10-02T04:43:24.871Z,0.6
2022-10-02T04:53:24.877Z,0.5
2022-10-02T05:03:24.907Z,0.5
2022-10-02T05:33:24.977Z,0.4
2022-10-02T05:53:25.052Z,0.4
2022-10-02T06:03:24.987Z,0.4
2022-10-02T06:13:25.047Z,0.4
2022-10-02T06:23:25.035Z,0.3
2022-10-02T06:33:25.144Z,0.4
2022-10-02T06:43:25.094Z,0.3
2022-10-02T06:53:25.300Z,0.3
2022-10-02T07:03:25.112Z,0.4
2022-10-02T07:13:25.196Z,0.4
2022-10-02T07:23:25.169Z,0.3
2022-10-02T07:33:29.259Z,0.3
2022-10-02T07:43:25.174Z,0.3
2022-10-02T07:53:25.236Z,0.3
2022-10-02T08:03:25.333Z,0.3
2022-10-02T08:13:25.386Z,0.3
2022-10-02T08:23:25.262Z,0.3
2022-10-02T08:33:25.310Z,0.3
2022-10-02T08:43:25.335Z,0.4
2022-10-02T08:53:25.479Z,0.4
2022-10-02T09:03:25.350Z,0.4
2022-10-02T09:13:25.586Z,0.4
2022-10-02T09:23:25.468Z,0.4
2022-10-02T09:33:25.438Z,0.5
2022-10-02T09:43:25.414Z,0.6
2022-10-02T09:53:25.435Z,0.6
2022-10-02T10:03:25.442Z,0.7
2022-10-02T10:13:25.481Z,0.7
2022-10-02T10:23:25.473Z,0.6
2022-10-02T10:33:25.565Z,0.7
2022-10-02T10:43:25.521Z,0.6
2022-10-02T11:03:25.564Z,0.8
2022-10-02T11:13:25.636Z,0.9
2022-10-02T11:23:25.609Z,1.1
2022-10-02T11:33:25.602Z,1.4
2022-10-02T11:43:25.656Z,1.7
2022-10-02T11:53:25.640Z,1.8
2022-10-02T12:03:25.724Z,1.8
2022-10-02T12:13:25.660Z,1.8
2022-10-02T12:23:25.705Z,1.8
2022-10-02T12:33:25.707Z,2.1
2022-10-02T12:43:25.753Z,2.2
2022-10-02T12:53:25.751Z,2.5
2022-10-02T13:03:25.776Z,2.9
2022-10-02T13:13:25.794Z,2.9
2022-10-02T13:23:25.824Z,2.9
2022-10-02T13:33:25.795Z,3
2022-10-02T13:43:25.847Z,2.8
2022-10-02T13:53:25.829Z,2.8
2022-10-02T14:03:25.968Z,2.7
2022-10-02T14:13:25.860Z,2.4
2022-10-02T14:23:25.925Z,2.5
2022-10-02T14:33:25.928Z,2.4
2022-10-02T14:43:25.939Z,2.5
2022-10-02T14:53:25.970Z,2.5
2022-10-02T15:03:25.985Z,2.4
2022-10-02T15:13:25.997Z,2.4
2022-10-02T15:23:26.029Z,2.4
2022-10-02T15:33:26.017Z,2.4
2022-10-02T15:43:26.041Z,2.3
2022-10-02T15:53:26.049Z,2.3
2022-10-02T16:03:26.094Z,2
2022-10-02T16:43:26.170Z,1.5
2022-10-02T16:53:26.143Z,1.4
2022-10-02T17:13:26.238Z,1.3
2022-10-02T17:43:26.272Z,1.2
2022-10-02T17:53:26.279Z,1.1
2022-10-02T18:13:26.314Z,1.2
2022-10-02T18:23:26.305Z,1.2
2022-10-02T18:33:26.361Z,1.1
2022-10-02T18:43:26.341Z,1
2022-10-02T18:53:26.399Z,1
2022-10-02T19:03:26.387Z,0.9
2022-10-02T19:13:26.417Z,0.8
2022-10-02T19:23:26.416Z,0.7
2022-10-02T19:33:26.469Z,0.7
2022-10-02T20:13:26.563Z,0.5
2022-10-02T21:03:26.650Z,0.4
2022-10-02T21:13:26.644Z,0.4
2022-10-02T21:23:26.681Z,0.4
2022-10-02T21:43:26.817Z,0.4
2022-10-02T22:13:26.793Z,0.5
2022-10-02T22:23:26.785Z,0.4
2022-10-02T22:43:26.835Z,0.4
2022-10-02T22:53:26.848Z,0.4
2022-10-02T23:13:26.930Z,0.3
2022-10-02T23:33:26.975Z,0.3
2022-10-02T23:43:26.934Z,0.3
